LiveATC.Net - Listen to live air traffic control over the Internet!


ICAO: KCLL  IATA: CLL   Airport: Easterwood Field Airport
City: College Station   State/Province: Texas
Country: United States   Continent: North America
KCLL METAR Weather: KCLL 171222Z AUTO 00000KT 2 1/2SM BR OVC003 11/11 A2975 RMK AO2 T01110111
KCLL Flight Activity (FlightAware)
KCLL Airport Info   (iFlightPlanner)
KCLL VFR Sectional Chart   (iFlightPlanner) 
KCLL IFR Low Chart   (iFlightPlanner) 

KCLL Gnd/Twr/App
Feed Status: UP   Listeners: 0
Listen in your browser - HTML5 player (in browser, HTML5)
Click here to listen with your own player (launches your MP3 player)
KCLL Gnd/Twr/App Audio Archives
FacilityFrequency
Easterwood Ground128.700
Easterwood Tower118.500
Houston Approach (NW/below 8000)134.300

NOTICE

Unauthorized use prohibited. See LiveATC.net Terms of Service


Find LiveATC Audio Streams


Airport/ARTCC Code

Frequency Search
(e.g., 124.400, 128.75)
Site-wide search
 


Browse LiveATC Feeds
Top 50 LiveATC Feeds
LiveATC Feed Map
Bad Weather Areas

LiveATC FAQ
Offer LiveATC feed
Contact LiveATC.net
Press Inquiries

LiveATC on iPhone
LiveATC on Android

Windows Phone
Windows 8/10

LiveATC Mobile
(Mobile browser)

ATC Audio Archives
Interesting Recordings

LiveATC Forums


Home Page
About LiveATC.net
Make a Donation
Terms of Use
Privacy Policy

Canadian Air Freqs

AIRMETs/SIGMETs

FAA Airport Status
Nat'l Airspace Status
Arrival Demand Charts


Server Software By:
Icecast.org
Liquidsoap